createdAt,value
2022-07-29T00:02:26.776Z,39.36
2022-07-29T00:04:53.588Z,39.56
2022-07-29T00:07:20.116Z,39.68
2022-07-29T00:09:52.167Z,39.49
2022-07-29T00:12:25.510Z,39.70
2022-07-29T00:14:56.631Z,39.46
2022-07-29T00:17:24.271Z,39.72
2022-07-29T00:19:50.831Z,39.73
2022-07-29T00:22:17.515Z,39.85
2022-07-29T00:24:44.037Z,39.92
2022-07-29T00:27:10.454Z,39.86
2022-07-29T00:29:36.970Z,40.01
2022-07-29T00:32:04.117Z,40.02
2022-07-29T00:34:50.456Z,40.02
2022-07-29T00:37:17.365Z,39.97
2022-07-29T00:39:44.548Z,39.97
2022-07-29T00:42:11.056Z,39.97
2022-07-29T00:44:41.821Z,39.87
2022-07-29T00:47:10.173Z,39.85
2022-07-29T00:49:37.553Z,39.95
2022-07-29T00:52:05.975Z,40.09
2022-07-29T00:54:34.436Z,39.73
2022-07-29T00:57:01.610Z,39.94
2022-07-29T00:59:35.019Z,39.99
2022-07-29T01:02:02.289Z,40.09
2022-07-29T01:04:30.598Z,39.93
2022-07-29T01:06:57.367Z,39.77
2022-07-29T01:09:35.067Z,39.82
2022-07-29T01:12:13.896Z,39.90
2022-07-29T01:14:41.492Z,39.82
2022-07-29T01:17:15.036Z,39.81
2022-07-29T01:20:18.512Z,39.51
2022-07-29T01:23:28.695Z,39.45
2022-07-29T01:26:24.195Z,39.79
2022-07-29T01:29:05.364Z,39.46
2022-07-29T01:31:59.464Z,39.46
2022-07-29T01:34:53.325Z,39.66
2022-07-29T01:37:27.037Z,39.67
2022-07-29T01:39:56.351Z,39.79
2022-07-29T01:42:32.988Z,40.01
2022-07-29T01:45:54.050Z,39.54
2022-07-29T01:48:31.029Z,39.88
2022-07-29T01:51:05.687Z,39.79
2022-07-29T01:53:40.199Z,39.73
2022-07-29T01:56:08.154Z,40.14
2022-07-29T01:58:36.631Z,40.04
2022-07-29T02:01:04.446Z,40.28
2022-07-29T02:03:34.325Z,40.23
2022-07-29T02:06:02.464Z,40.30
2022-07-29T02:08:30.428Z,40.33
2022-07-29T02:10:58.780Z,40.22
2022-07-29T02:13:28.595Z,40.49
2022-07-29T02:15:56.695Z,40.70
2022-07-29T02:18:28.204Z,40.54
2022-07-29T02:20:57.425Z,40.73
2022-07-29T02:23:25.120Z,41.09
2022-07-29T02:25:57.280Z,40.91
2022-07-29T02:28:27.445Z,40.99
2022-07-29T02:30:56.482Z,41.14
2022-07-29T02:33:25.342Z,41.19
2022-07-29T02:35:53.108Z,41.45
2022-07-29T02:38:41.088Z,41.65
2022-07-29T02:41:13.044Z,41.56
2022-07-29T02:43:41.491Z,41.87
2022-07-29T02:46:29.019Z,41.64
2022-07-29T02:49:10.189Z,41.37
2022-07-29T02:51:46.660Z,41.42
2022-07-29T02:54:23.634Z,41.71
2022-07-29T02:56:53.551Z,42.01
2022-07-29T02:59:26.433Z,41.97
2022-07-29T03:01:54.479Z,42.33
2022-07-29T03:04:22.949Z,42.20
2022-07-29T03:06:51.941Z,42.41
2022-07-29T03:09:18.750Z,42.34
2022-07-29T03:11:50.610Z,42.71
2022-07-29T03:14:21.417Z,42.11
2022-07-29T03:16:49.256Z,42.42
2022-07-29T03:19:16.083Z,42.49
2022-07-29T03:21:42.587Z,42.62
2022-07-29T03:24:12.549Z,42.54
2022-07-29T03:26:39.143Z,42.77
2022-07-29T03:29:05.874Z,42.88
2022-07-29T03:31:32.494Z,42.59
2022-07-29T03:34:00.143Z,42.55
2022-07-29T03:36:26.577Z,42.33
2022-07-29T03:38:53.395Z,42.72
2022-07-29T03:41:23.761Z,42.79
2022-07-29T03:43:52.708Z,42.83
2022-07-29T03:46:23.675Z,42.81
2022-07-29T03:48:53.545Z,42.48
2022-07-29T03:51:20.109Z,42.85
2022-07-29T03:54:00.354Z,42.96
2022-07-29T03:56:28.908Z,42.79
2022-07-29T03:58:56.602Z,43.14
2022-07-29T04:01:23.608Z,42.97
2022-07-29T04:03:50.603Z,42.92
2022-07-29T04:06:17.131Z,43.07
2022-07-29T04:08:43.571Z,43.35
2022-07-29T04:11:10.203Z,43.40
2022-07-29T04:13:36.637Z,43.15
2022-07-29T04:16:03.137Z,43.52
2022-07-29T04:18:29.595Z,43.27
2022-07-29T04:20:56.012Z,43.60
2022-07-29T04:23:22.472Z,43.45
2022-07-29T04:25:49.028Z,43.52
2022-07-29T04:28:15.566Z,43.42
2022-07-29T04:30:43.629Z,43.54
2022-07-29T04:33:10.084Z,43.89
2022-07-29T04:35:49.891Z,43.58
2022-07-29T04:38:18.778Z,43.64
2022-07-29T04:40:45.280Z,43.82
2022-07-29T04:43:11.883Z,43.89
2022-07-29T04:45:40.713Z,43.65
2022-07-29T04:48:07.159Z,43.77
2022-07-29T04:50:33.589Z,43.81
2022-07-29T04:53:00.114Z,43.73
2022-07-29T04:55:26.672Z,43.70
2022-07-29T04:57:53.119Z,43.66
2022-07-29T05:00:19.571Z,43.71
2022-07-29T05:02:46.073Z,43.52
2022-07-29T05:05:12.593Z,43.68
2022-07-29T05:07:41.882Z,43.46
2022-07-29T05:10:09.262Z,43.60
2022-07-29T05:12:35.760Z,43.59
2022-07-29T05:15:02.207Z,43.54
2022-07-29T05:17:28.742Z,43.57
2022-07-29T05:19:55.266Z,43.42
2022-07-29T05:22:21.914Z,43.47
2022-07-29T05:24:48.594Z,43.30
2022-07-29T05:27:15.075Z,43.24
2022-07-29T05:29:44.494Z,43.29
2022-07-29T05:32:13.600Z,43.18
2022-07-29T05:34:51.278Z,43.11
2022-07-29T05:37:19.952Z,42.81
2022-07-29T05:39:50.548Z,42.93
2022-07-29T05:42:22.567Z,43.02
2022-07-29T05:44:49.152Z,42.75
2022-07-29T05:47:15.593Z,42.71
2022-07-29T05:49:42.367Z,42.59
2022-07-29T05:52:09.963Z,42.53
2022-07-29T05:54:36.677Z,42.71
2022-07-29T05:57:04.018Z,42.34
2022-07-29T05:59:30.791Z,42.54
2022-07-29T06:01:58.328Z,42.46
2022-07-29T06:04:25.068Z,42.23
2022-07-29T06:06:51.868Z,41.96
2022-07-29T06:09:18.387Z,41.65
2022-07-29T06:11:44.853Z,41.22
2022-07-29T06:14:11.473Z,41.05
2022-07-29T06:16:38.021Z,40.82
2022-07-29T06:19:05.377Z,40.60
2022-07-29T06:21:31.784Z,40.58
2022-07-29T06:23:58.183Z,40.70
2022-07-29T06:26:30.223Z,40.59
2022-07-29T06:28:58.101Z,40.49
2022-07-29T06:31:24.662Z,40.33
2022-07-29T06:33:51.288Z,40.22
2022-07-29T06:36:20.458Z,40.30
2022-07-29T06:38:51.318Z,40.36
2022-07-29T06:41:18.946Z,40.40
2022-07-29T06:43:52.509Z,40.11
2022-07-29T06:46:22.976Z,40.28
2022-07-29T06:48:50.543Z,40.05
2022-07-29T06:51:22.201Z,40.30
2022-07-29T06:53:59.823Z,40.33
2022-07-29T06:56:39.084Z,40.49
2022-07-29T06:59:06.494Z,40.16
2022-07-29T07:01:32.967Z,40.61
2022-07-29T07:03:59.592Z,40.38
2022-07-29T07:06:26.082Z,40.48
2022-07-29T07:08:52.516Z,40.33
2022-07-29T07:11:19.042Z,39.83
2022-07-29T07:13:45.486Z,39.98
2022-07-29T07:16:11.949Z,40.02
2022-07-29T07:18:38.377Z,40.17
2022-07-29T07:21:05.992Z,39.54
2022-07-29T07:23:32.724Z,39.41
2022-07-29T07:25:59.175Z,38.99
2022-07-29T07:28:25.601Z,38.94
2022-07-29T07:30:53.183Z,38.87
2022-07-29T07:33:20.372Z,38.41
2022-07-29T07:35:47.072Z,38.54
2022-07-29T07:38:14.146Z,38.35
2022-07-29T07:40:41.531Z,38.56
2022-07-29T07:43:08.080Z,38.36
2022-07-29T07:45:34.860Z,38.52
2022-07-29T07:48:01.443Z,38.24
2022-07-29T07:50:27.899Z,37.81
2022-07-29T07:52:59.711Z,37.80
2022-07-29T07:55:27.074Z,37.86
2022-07-29T07:57:54.189Z,37.92
2022-07-29T08:00:23.108Z,38.19
2022-07-29T08:02:51.062Z,38.15
2022-07-29T08:05:18.121Z,37.58
2022-07-29T08:07:48.299Z,37.67
2022-07-29T08:10:16.005Z,37.76
2022-07-29T08:12:44.223Z,37.56
2022-07-29T08:15:10.719Z,37.58
2022-07-29T08:17:37.212Z,37.41
2022-07-29T08:20:04.325Z,37.04
2022-07-29T08:22:30.853Z,36.92
2022-07-29T08:24:57.384Z,37.12
2022-07-29T08:27:44.904Z,36.99
2022-07-29T08:30:11.268Z,36.57
2022-07-29T08:32:53.027Z,36.91
2022-07-29T08:35:21.916Z,36.30
2022-07-29T08:37:48.515Z,36.63
2022-07-29T08:40:17.892Z,35.99
2022-07-29T08:42:44.404Z,36.31
2022-07-29T08:45:11.352Z,35.66
2022-07-29T08:47:40.979Z,35.27
2022-07-29T08:50:11.507Z,35.25
2022-07-29T08:52:40.457Z,35.20
2022-07-29T08:55:08.628Z,35.01
2022-07-29T08:57:37.288Z,34.85
2022-07-29T09:00:07.964Z,34.99
2022-07-29T09:02:41.608Z,34.77
2022-07-29T09:05:09.318Z,34.66
2022-07-29T09:07:36.238Z,33.88
2022-07-29T09:10:04.847Z,33.85
2022-07-29T09:12:36.103Z,33.91
2022-07-29T09:15:04.546Z,33.96
2022-07-29T09:17:48.438Z,33.72
2022-07-29T09:20:18.313Z,33.87
2022-07-29T09:22:49.975Z,33.43
2022-07-29T09:25:33.700Z,33.76
2022-07-29T09:28:14.213Z,34.00
2022-07-29T09:30:55.071Z,33.64
2022-07-29T09:33:23.245Z,33.09
2022-07-29T09:36:10.330Z,33.61
2022-07-29T09:38:38.247Z,33.53
2022-07-29T09:41:06.941Z,33.14
2022-07-29T09:43:34.471Z,33.20
2022-07-29T09:46:12.457Z,33.45
2022-07-29T09:48:39.066Z,32.88
2022-07-29T09:51:06.842Z,32.94
2022-07-29T09:53:38.080Z,32.87
2022-07-29T09:56:05.885Z,32.63
2022-07-29T09:58:34.700Z,32.07
2022-07-29T10:01:01.217Z,32.74
2022-07-29T10:03:27.771Z,32.57
2022-07-29T10:06:11.598Z,33.04
2022-07-29T10:08:39.281Z,33.87
2022-07-29T10:11:18.916Z,33.83
2022-07-29T10:13:48.169Z,34.22
2022-07-29T10:16:16.004Z,34.33
2022-07-29T10:18:44.653Z,34.15
2022-07-29T10:21:11.576Z,33.84
2022-07-29T10:23:59.538Z,34.00
2022-07-29T10:26:27.863Z,34.21
2022-07-29T10:28:54.325Z,34.39
2022-07-29T10:31:30.475Z,34.40
2022-07-29T10:34:12.433Z,34.57
2022-07-29T10:40:47.662Z,34.36
2022-07-29T10:43:36.869Z,34.88
2022-07-29T10:46:05.287Z,34.94
2022-07-29T10:48:34.203Z,34.77
2022-07-29T10:53:54.067Z,34.54
2022-07-29T10:56:28.875Z,34.74
2022-07-29T10:59:15.142Z,34.98
2022-07-29T11:01:49.351Z,35.90
2022-07-29T11:04:44.478Z,35.87
2022-07-29T11:07:12.211Z,36.37
2022-07-29T11:09:39.106Z,36.32
2022-07-29T11:12:37.450Z,36.59
2022-07-29T11:15:07.946Z,36.93
2022-07-29T11:17:53.323Z,37.08
2022-07-29T11:20:42.697Z,37.21
2022-07-29T11:23:25.525Z,36.67
2022-07-29T11:26:10.310Z,37.16
2022-07-29T11:28:50.897Z,37.20
2022-07-29T11:31:35.748Z,37.20
2022-07-29T11:34:28.147Z,37.23
2022-07-29T11:37:17.580Z,37.08
2022-07-29T11:40:01.487Z,37.04
2022-07-29T11:42:32.245Z,37.65
2022-07-29T11:45:41.159Z,37.40
2022-07-29T11:48:05.363Z,36.71
2022-07-29T11:50:45.896Z,37.42
2022-07-29T11:53:15.089Z,37.23
2022-07-29T11:55:51.416Z,37.31
2022-07-29T11:58:25.043Z,37.83
2022-07-29T12:00:52.475Z,38.57
2022-07-29T12:03:35.567Z,38.14
2022-07-29T12:06:14.928Z,38.40
2022-07-29T12:08:43.698Z,38.71
2022-07-29T12:11:20.810Z,38.98
2022-07-29T12:13:49.186Z,38.92
2022-07-29T12:16:16.350Z,38.91
2022-07-29T12:19:03.812Z,38.90
2022-07-29T12:21:50.941Z,38.67
2022-07-29T12:24:23.287Z,39.54
2022-07-29T12:26:58.672Z,39.48
2022-07-29T12:29:34.988Z,39.63
2022-07-29T12:32:04.447Z,40.05
2022-07-29T12:34:31.765Z,39.85
2022-07-29T12:36:58.547Z,41.39
2022-07-29T12:39:27.572Z,40.95
2022-07-29T12:41:54.309Z,40.91
2022-07-29T12:44:51.243Z,40.71
2022-07-29T12:47:19.074Z,39.68
2022-07-29T12:49:47.838Z,41.09
2022-07-29T12:52:31.707Z,42.14
2022-07-29T12:54:58.352Z,41.81
2022-07-29T12:57:25.192Z,41.70
2022-07-29T13:00:13.691Z,42.26
2022-07-29T13:02:41.934Z,42.90
2022-07-29T13:05:09.796Z,43.01
2022-07-29T13:07:54.621Z,43.09
2022-07-29T13:10:24.340Z,42.99
2022-07-29T13:13:14.049Z,42.02
2022-07-29T13:15:47.797Z,42.65
2022-07-29T13:18:39.136Z,42.23
2022-07-29T13:21:14.113Z,42.12
2022-07-29T13:23:40.557Z,43.13
2022-07-29T13:26:11.056Z,42.85
2022-07-29T13:28:37.619Z,42.75
2022-07-29T13:31:05.869Z,42.79
2022-07-29T13:33:32.355Z,42.86
2022-07-29T13:35:58.829Z,42.64
2022-07-29T13:38:31.345Z,43.35
2022-07-29T13:40:58.047Z,43.23
2022-07-29T13:43:24.536Z,43.30
2022-07-29T13:45:51.048Z,43.31
2022-07-29T13:48:17.510Z,42.68
2022-07-29T13:50:44.198Z,42.83
2022-07-29T13:53:10.627Z,42.69
2022-07-29T13:55:44.106Z,42.19
2022-07-29T13:58:10.543Z,42.02
2022-07-29T14:00:36.982Z,41.93
2022-07-29T14:03:03.743Z,42.46
2022-07-29T14:05:30.247Z,42.16
2022-07-29T14:07:56.655Z,42.09
2022-07-29T14:10:23.186Z,42.23
2022-07-29T14:12:49.586Z,41.64
2022-07-29T14:15:16.002Z,41.40
2022-07-29T14:17:42.465Z,41.00
2022-07-29T14:20:09.339Z,41.55
2022-07-29T14:25:14.859Z,41.16
2022-07-29T14:27:42.048Z,40.74
2022-07-29T14:30:09.378Z,40.87
2022-07-29T14:32:35.833Z,40.69
2022-07-29T14:35:02.291Z,40.70
2022-07-29T14:37:28.825Z,40.89
2022-07-29T14:40:07.266Z,40.82
2022-07-29T14:42:33.793Z,40.96
2022-07-29T14:45:00.364Z,41.24
2022-07-29T14:47:26.942Z,41.18
2022-07-29T14:49:53.574Z,41.21
2022-07-29T14:52:19.998Z,40.79
2022-07-29T14:54:46.454Z,40.59
2022-07-29T14:57:12.898Z,40.03
2022-07-29T14:59:39.332Z,40.06
2022-07-29T15:02:06.046Z,39.35
2022-07-29T15:04:32.568Z,39.20
2022-07-29T15:06:59.119Z,39.26
2022-07-29T15:09:25.692Z,39.21
2022-07-29T15:11:52.215Z,39.19
2022-07-29T15:14:18.690Z,38.87
2022-07-29T15:16:46.656Z,38.32
2022-07-29T15:19:14.827Z,38.08
2022-07-29T15:21:48.612Z,37.52
2022-07-29T15:24:18.867Z,37.64
2022-07-29T15:26:45.991Z,37.47
2022-07-29T15:29:12.645Z,37.37
2022-07-29T15:31:39.385Z,37.34
2022-07-29T15:34:07.051Z,37.37
2022-07-29T15:39:21.607Z,36.96
2022-07-29T15:41:48.095Z,36.33
2022-07-29T15:44:14.532Z,36.15
2022-07-29T15:47:00.281Z,35.80
2022-07-29T15:49:47.555Z,35.74
2022-07-29T15:52:17.124Z,35.76
2022-07-29T15:54:43.602Z,35.71
2022-07-29T15:57:10.116Z,35.38
2022-07-29T15:59:36.681Z,35.71
2022-07-29T16:02:04.395Z,35.33
2022-07-29T16:04:32.058Z,35.15
2022-07-29T16:06:59.040Z,34.88
2022-07-29T16:09:26.551Z,35.47
2022-07-29T16:11:54.034Z,35.41
2022-07-29T16:14:21.091Z,35.46
2022-07-29T16:16:48.380Z,35.69
2022-07-29T16:19:15.122Z,35.58
2022-07-29T16:21:41.582Z,35.19
2022-07-29T16:24:08.430Z,34.84
2022-07-29T16:26:35.331Z,35.19
2022-07-29T16:29:01.971Z,35.09
2022-07-29T16:31:28.541Z,35.14
2022-07-29T16:33:56.070Z,35.04
2022-07-29T16:36:23.058Z,35.20
2022-07-29T16:38:50.150Z,35.36
2022-07-29T16:41:16.771Z,35.22
2022-07-29T16:43:43.278Z,35.10
2022-07-29T16:46:15.665Z,35.20
2022-07-29T16:48:45.655Z,35.48
2022-07-29T16:51:14.415Z,35.21
2022-07-29T16:53:41.340Z,35.31
2022-07-29T16:56:08.491Z,35.41
2022-07-29T16:58:41.755Z,35.80
2022-07-29T17:01:10.164Z,35.81
2022-07-29T17:03:59.963Z,35.71
2022-07-29T17:06:27.334Z,35.47
2022-07-29T17:08:53.759Z,35.89
2022-07-29T17:11:20.179Z,35.60
2022-07-29T17:13:46.598Z,35.96
2022-07-29T17:16:13.362Z,35.86
2022-07-29T17:18:39.790Z,35.74
2022-07-29T17:21:06.272Z,36.04
2022-07-29T17:23:32.706Z,35.76
2022-07-29T17:25:59.150Z,35.97
2022-07-29T17:28:25.571Z,36.04
2022-07-29T17:30:51.988Z,36.30
2022-07-29T17:33:18.434Z,35.93
2022-07-29T17:36:03.435Z,36.28
2022-07-29T17:38:29.874Z,35.84
2022-07-29T17:40:56.498Z,35.85
2022-07-29T17:43:22.904Z,35.99
2022-07-29T17:45:50.865Z,35.83
2022-07-29T17:48:18.257Z,36.23
2022-07-29T17:50:44.771Z,36.14
2022-07-29T17:53:16.266Z,36.35
2022-07-29T17:55:47.587Z,36.14
2022-07-29T17:58:16.072Z,36.48
2022-07-29T18:00:42.873Z,36.15
2022-07-29T18:03:09.827Z,36.42
2022-07-29T18:05:36.935Z,36.77
2022-07-29T18:08:03.614Z,36.71
2022-07-29T18:10:30.319Z,36.61
2022-07-29T18:12:56.795Z,36.52
2022-07-29T18:15:23.263Z,36.53
2022-07-29T18:17:56.943Z,36.69
2022-07-29T18:20:25.224Z,36.77
2022-07-29T18:22:51.823Z,36.37
2022-07-29T18:25:18.358Z,36.31
2022-07-29T18:27:45.186Z,36.82
2022-07-29T18:30:11.818Z,36.69
2022-07-29T18:32:38.233Z,36.61
2022-07-29T18:35:05.853Z,36.99
2022-07-29T18:38:01.346Z,36.87
2022-07-29T18:40:21.834Z,37.03
2022-07-29T18:42:48.268Z,36.63
2022-07-29T18:45:19.386Z,37.08
2022-07-29T18:47:47.573Z,36.93
2022-07-29T18:50:14.691Z,37.41
2022-07-29T18:52:41.795Z,37.46
2022-07-29T18:55:08.972Z,37.61
2022-07-29T18:57:54.804Z,37.60
2022-07-29T19:00:22.770Z,37.14
2022-07-29T19:02:49.939Z,37.48
2022-07-29T19:05:16.615Z,37.23
2022-07-29T19:07:43.161Z,37.10
2022-07-29T19:10:10.101Z,36.98
2022-07-29T19:12:36.896Z,37.19
2022-07-29T19:15:04.003Z,37.55
2022-07-29T19:17:30.483Z,37.73
2022-07-29T19:19:57.154Z,37.93
2022-07-29T19:22:23.671Z,38.94
2022-07-29T19:24:50.927Z,39.10
2022-07-29T19:27:17.462Z,39.39
2022-07-29T19:29:44.104Z,38.95
2022-07-29T19:32:10.882Z,38.54
2022-07-29T19:34:37.602Z,39.61
2022-07-29T19:37:04.276Z,39.19
2022-07-29T19:39:34.810Z,38.69
2022-07-29T19:42:03.366Z,38.89
2022-07-29T19:44:30.175Z,39.38
2022-07-29T19:46:56.932Z,39.15
2022-07-29T19:49:23.878Z,39.35
2022-07-29T19:51:50.427Z,40.28
2022-07-29T19:54:19.840Z,40.75
2022-07-29T19:56:46.287Z,41.03
2022-07-29T19:59:12.756Z,41.08
2022-07-29T20:01:39.616Z,40.86
2022-07-29T20:04:06.109Z,41.18
2022-07-29T20:06:32.643Z,40.65
2022-07-29T20:08:59.269Z,41.02
2022-07-29T20:11:26.549Z,41.53
2022-07-29T20:13:53.013Z,41.64
2022-07-29T20:16:19.605Z,41.31
2022-07-29T20:18:46.143Z,41.12
2022-07-29T20:21:12.596Z,41.12
2022-07-29T20:23:39.190Z,41.38
2022-07-29T20:26:09.321Z,41.10
2022-07-29T20:28:37.127Z,40.82
2022-07-29T20:31:03.683Z,41.13
2022-07-29T20:33:30.180Z,40.57
2022-07-29T20:35:56.750Z,41.32
2022-07-29T20:38:23.243Z,41.61
2022-07-29T20:40:50.761Z,42.77
2022-07-29T20:43:17.211Z,42.57
2022-07-29T20:45:43.643Z,42.50
2022-07-29T20:48:10.644Z,42.83
2022-07-29T20:50:37.057Z,42.63
2022-07-29T20:53:03.924Z,43.01
2022-07-29T20:55:31.956Z,42.91
2022-07-29T20:57:58.775Z,43.14
2022-07-29T21:00:25.260Z,42.93
2022-07-29T21:02:51.854Z,43.07
2022-07-29T21:05:18.435Z,42.98
2022-07-29T21:07:45.225Z,43.04
2022-07-29T21:10:12.147Z,43.21
2022-07-29T21:12:38.617Z,42.98
2022-07-29T21:15:06.558Z,42.69
2022-07-29T21:17:39.018Z,42.85
2022-07-29T21:20:08.451Z,42.67
2022-07-29T21:22:34.879Z,42.50
2022-07-29T21:25:01.686Z,43.05
2022-07-29T21:27:46.777Z,43.20
2022-07-29T21:30:13.367Z,43.18
2022-07-29T21:32:39.891Z,43.35
2022-07-29T21:35:15.141Z,43.77
2022-07-29T21:37:53.165Z,43.67
2022-07-29T21:40:20.211Z,43.84
2022-07-29T21:42:46.678Z,43.96
2022-07-29T21:45:15.778Z,44.44
2022-07-29T21:47:42.235Z,44.18
2022-07-29T21:50:08.906Z,44.22
2022-07-29T21:52:35.701Z,43.98
2022-07-29T21:55:04.123Z,44.54
2022-07-29T21:57:30.583Z,44.50
2022-07-29T22:00:02.171Z,44.56
2022-07-29T22:02:29.362Z,44.91
2022-07-29T22:04:55.822Z,45.08
2022-07-29T22:07:22.267Z,45.18
2022-07-29T22:09:48.780Z,44.94
2022-07-29T22:12:15.187Z,45.33
2022-07-29T22:14:42.097Z,45.53
2022-07-29T22:17:08.637Z,45.48
2022-07-29T22:19:35.118Z,45.16
2022-07-29T22:22:01.545Z,45.38
2022-07-29T22:24:28.027Z,45.90
2022-07-29T22:26:54.560Z,45.62
2022-07-29T22:29:21.003Z,46.17
2022-07-29T22:31:47.495Z,45.87
2022-07-29T22:34:14.363Z,46.23
2022-07-29T22:36:41.214Z,45.83
2022-07-29T22:39:07.950Z,46.94
2022-07-29T22:41:34.516Z,46.78
2022-07-29T22:44:01.057Z,46.80
2022-07-29T22:46:27.520Z,47.04
2022-07-29T22:48:54.150Z,46.95
2022-07-29T22:51:20.690Z,47.34
2022-07-29T22:53:47.171Z,47.37
2022-07-29T22:56:13.647Z,47.24
2022-07-29T22:58:40.060Z,48.06
2022-07-29T23:01:06.615Z,47.75
2022-07-29T23:03:33.233Z,47.90
2022-07-29T23:05:59.723Z,47.89
2022-07-29T23:08:26.182Z,47.74
2022-07-29T23:10:52.620Z,48.39
2022-07-29T23:13:19.066Z,48.03
2022-07-29T23:15:45.593Z,48.42
2022-07-29T23:18:12.143Z,48.71
2022-07-29T23:20:38.657Z,48.86
2022-07-29T23:23:05.115Z,48.81
2022-07-29T23:25:32.168Z,49.09
2022-07-29T23:27:58.621Z,49.00
2022-07-29T23:30:25.479Z,49.12
2022-07-29T23:32:52.120Z,49.46
2022-07-29T23:35:18.681Z,49.40
2022-07-29T23:37:45.346Z,49.34
2022-07-29T23:40:14.532Z,49.16
2022-07-29T23:42:42.695Z,49.58
2022-07-29T23:45:11.207Z,49.30
2022-07-29T23:47:37.965Z,49.75
2022-07-29T23:50:06.375Z,49.60
2022-07-29T23:52:32.838Z,49.66
2022-07-29T23:55:37.958Z,49.64
2022-07-29T23:57:45.922Z,49.83
